createdAt,value
2018-04-12T00:00:53.211Z,0
2018-04-12T00:01:52.660Z,0
2018-04-12T00:02:53.202Z,0
2018-04-12T00:03:52.902Z,0
2018-04-12T00:04:53.144Z,0
2018-04-12T00:05:53.121Z,0
2018-04-12T00:06:53.124Z,0
2018-04-12T00:07:53.148Z,0
2018-04-12T00:08:52.812Z,0
2018-04-12T00:09:52.812Z,0
2018-04-12T00:10:52.792Z,0
2018-04-12T00:11:52.498Z,0
2018-04-12T00:12:53.287Z,0
2018-04-12T00:13:53.011Z,0
2018-04-12T00:14:52.731Z,0
2018-04-12T00:15:52.717Z,0
2018-04-12T00:16:52.972Z,0
2018-04-12T00:17:52.147Z,0
2018-04-12T00:18:52.932Z,0
2018-04-12T00:19:52.119Z,0
2018-04-12T00:20:52.636Z,0
2018-04-12T00:21:52.623Z,0
2018-04-12T00:22:52.336Z,0
2018-04-12T00:23:53.109Z,0
2018-04-12T00:24:53.111Z,0
2018-04-12T00:25:52.752Z,0
2018-04-12T00:26:52.266Z,0
2018-04-12T00:27:52.522Z,0
2018-04-12T00:28:52.774Z,0
2018-04-12T00:29:52.239Z,0
2018-04-12T00:30:52.473Z,0
2018-04-12T00:31:52.733Z,0
2018-04-12T00:32:52.178Z,0
2018-04-12T00:33:52.163Z,0
2018-04-12T00:34:52.423Z,0
2018-04-12T00:35:52.938Z,0
2018-04-12T00:36:52.383Z,0
2018-04-12T00:37:52.103Z,0
2018-04-12T00:38:52.461Z,0
2018-04-12T00:39:52.329Z,0
2018-04-12T00:40:52.636Z,0
2018-04-12T00:41:52.301Z,0
2018-04-12T00:42:52.823Z,0
2018-04-12T00:43:52.008Z,0
2018-04-12T00:44:52.526Z,0
2018-04-12T00:45:52.246Z,0
2018-04-12T00:46:52.224Z,0
2018-04-12T00:47:52.745Z,0
2018-04-12T00:48:52.454Z,0
2018-04-12T00:49:52.176Z,0
2018-04-12T00:50:51.898Z,0
2018-04-12T00:51:52.146Z,0
2018-04-12T00:52:52.132Z,0
2018-04-12T00:53:51.864Z,0
2018-04-12T00:54:52.098Z,0
2018-04-12T00:55:52.353Z,0
2018-04-12T00:56:52.385Z,0
2018-04-12T00:57:52.327Z,0
2018-04-12T00:58:52.031Z,0
2018-04-12T00:59:52.293Z,0
2018-04-12T01:00:52.005Z,0
2018-04-12T01:01:52.268Z,0
2018-04-12T01:02:51.980Z,0
2018-04-12T01:03:52.219Z,0
2018-04-12T01:04:52.215Z,0
2018-04-12T01:05:52.454Z,0
2018-04-12T01:06:52.188Z,0
2018-04-12T01:07:51.899Z,0
2018-04-12T01:08:51.622Z,0
2018-04-12T01:09:52.395Z,0
2018-04-12T01:10:51.862Z,0
2018-04-12T01:11:51.835Z,0
2018-04-12T01:12:52.077Z,0
2018-04-12T01:13:52.089Z,0
2018-04-12T01:14:51.515Z,0
2018-04-12T01:15:51.769Z,0
2018-04-12T01:16:51.755Z,0
2018-04-12T01:17:51.527Z,0
2018-04-12T01:18:51.451Z,0
2018-04-12T01:19:51.982Z,0
2018-04-12T01:20:51.164Z,0
2018-04-12T01:21:51.685Z,0
2018-04-12T01:22:51.657Z,0
2018-04-12T01:23:51.902Z,0
2018-04-12T01:24:51.617Z,0
2018-04-12T01:25:51.613Z,0
2018-04-12T01:26:51.595Z,0
2018-04-12T01:27:51.855Z,0
2018-04-12T01:28:51.558Z,0
2018-04-12T01:29:51.552Z,0
2018-04-12T01:30:51.533Z,0
2018-04-12T01:31:51.786Z,0
2018-04-12T01:32:51.495Z,0
2018-04-12T01:33:52.007Z,0
2018-04-12T01:34:52.004Z,0
2018-04-12T01:35:51.712Z,0
2018-04-12T01:36:51.963Z,0
2018-04-12T01:37:51.677Z,0
2018-04-12T01:38:51.131Z,0
2018-04-12T01:39:51.132Z,0
2018-04-12T01:40:51.372Z,0
2018-04-12T01:41:51.621Z,0
2018-04-12T01:42:51.338Z,0
2018-04-12T01:43:51.601Z,0
2018-04-12T01:44:51.577Z,0
2018-04-12T01:45:51.565Z,0
2018-04-12T01:46:51.009Z,0
2018-04-12T01:47:51.578Z,0
2018-04-12T01:48:51.509Z,0
2018-04-12T01:49:51.228Z,0
2018-04-12T01:50:51.476Z,0
2018-04-12T01:51:51.466Z,0
2018-04-12T01:52:50.912Z,0
2018-04-12T01:53:51.420Z,0
2018-04-12T01:54:51.140Z,0
2018-04-12T01:55:51.134Z,0
2018-04-12T01:56:51.105Z,0
2018-04-12T01:57:51.634Z,0
2018-04-12T01:58:51.349Z,0
2018-04-12T01:59:51.060Z,0
2018-04-12T02:00:51.044Z,0
2018-04-12T02:01:51.033Z,0
2018-04-12T02:02:51.275Z,0
2018-04-12T02:03:50.734Z,0
2018-04-12T02:04:51.240Z,0
2018-04-12T02:05:50.691Z,0
2018-04-12T02:06:51.217Z,0
2018-04-12T02:07:50.665Z,0
2018-04-12T02:08:51.174Z,0
2018-04-12T02:09:51.162Z,0
2018-04-12T02:10:50.883Z,0
2018-04-12T02:11:51.390Z,0
2018-04-12T02:12:50.587Z,0
2018-04-12T02:13:51.109Z,0
2018-04-12T02:14:50.817Z,0
2018-04-12T02:15:51.071Z,0
2018-04-12T02:16:50.784Z,0
2018-04-12T02:17:51.043Z,0
2018-04-12T02:18:51.026Z,0
2018-04-12T02:19:50.996Z,0
2018-04-12T02:20:50.982Z,0
2018-04-12T02:21:50.706Z,0
2018-04-12T02:22:50.841Z,0
2018-04-12T02:23:50.406Z,0
2018-04-12T02:24:50.669Z,0
2018-04-12T02:25:51.054Z,0
2018-04-12T02:26:50.896Z,0
2018-04-12T02:27:51.129Z,0
2018-04-12T02:28:50.890Z,0
2018-04-12T02:29:50.307Z,0
2018-04-12T02:30:50.292Z,0
2018-04-12T02:31:50.009Z,0
2018-04-12T02:32:50.788Z,0
2018-04-12T02:33:50.779Z,0
2018-04-12T02:34:50.223Z,0
2018-04-12T02:35:50.476Z,0
2018-04-12T02:36:51.013Z,0
2018-04-12T02:37:50.701Z,0
2018-04-12T02:38:50.691Z,0
2018-04-12T02:39:50.412Z,0
2018-04-12T02:40:50.683Z,0
2018-04-12T02:41:50.376Z,0
2018-04-12T02:42:50.636Z,0
2018-04-12T02:43:50.070Z,0
2018-04-12T02:44:50.061Z,0
2018-04-12T02:45:50.319Z,0
2018-04-12T02:46:50.029Z,0
2018-04-12T02:47:50.289Z,0
2018-04-12T02:48:50.262Z,0
2018-04-12T02:49:50.243Z,0
2018-04-12T02:50:50.611Z,0
2018-04-12T02:51:49.956Z,0
2018-04-12T02:52:50.460Z,0
2018-04-12T02:53:50.173Z,0
2018-04-12T02:54:50.431Z,0
2018-04-12T02:55:50.412Z,0
2018-04-12T02:56:50.127Z,0
2018-04-12T02:57:50.109Z,0
2018-04-12T02:58:49.830Z,0
2018-04-12T02:59:50.359Z,0
2018-04-12T03:00:50.067Z,0
2018-04-12T03:01:50.055Z,0
2018-04-12T03:02:50.029Z,0
2018-04-12T03:03:49.754Z,0
2018-04-12T03:04:50.272Z,0
2018-04-12T03:05:49.989Z,0
2018-04-12T03:06:50.239Z,0
2018-04-12T03:07:50.492Z,0
2018-04-12T03:08:49.672Z,0
2018-04-12T03:09:50.182Z,0
2018-04-12T03:10:49.643Z,0
2018-04-12T03:11:50.454Z,0
2018-04-12T03:12:50.393Z,0
2018-04-12T03:13:49.579Z,0
2018-04-12T03:14:50.097Z,0
2018-04-12T03:15:50.079Z,0
2018-04-12T03:16:50.067Z,0
2018-04-12T03:17:49.837Z,0
2018-04-12T03:18:49.790Z,0
2018-04-12T03:19:50.278Z,0
2018-04-12T03:20:49.996Z,0
2018-04-12T03:21:50.241Z,0
2018-04-12T03:22:49.427Z,0
2018-04-12T03:23:49.678Z,0
2018-04-12T03:24:49.933Z,0
2018-04-12T03:25:49.903Z,0
2018-04-12T03:26:49.626Z,0
2018-04-12T03:27:49.339Z,0
2018-04-12T03:28:50.124Z,0
2018-04-12T03:29:49.628Z,0
2018-04-12T03:30:49.565Z,0
2018-04-12T03:31:50.107Z,0
2018-04-12T03:32:50.053Z,0
2018-04-12T03:33:49.509Z,0
2018-04-12T03:34:49.758Z,0
2018-04-12T03:35:50.006Z,0
2018-04-12T03:36:49.732Z,0
2018-04-12T03:37:49.964Z,0
2018-04-12T03:38:49.426Z,0
2018-04-12T03:39:49.405Z,0
2018-04-12T03:40:49.398Z,0
2018-04-12T03:41:48.834Z,0
2018-04-12T03:42:49.622Z,0
2018-04-12T03:43:49.332Z,0
2018-04-12T03:44:49.595Z,0
2018-04-12T03:45:49.839Z,0
2018-04-12T03:46:49.558Z,0
2018-04-12T03:47:49.271Z,0
2018-04-12T03:48:49.080Z,0
2018-04-12T03:49:49.865Z,0
2018-04-12T03:50:49.215Z,0
2018-04-12T03:51:49.201Z,0
2018-04-12T03:52:49.188Z,0
2018-04-12T03:53:49.425Z,0
2018-04-12T03:54:49.685Z,0
2018-04-12T03:55:49.130Z,0
2018-04-12T03:56:48.846Z,0
2018-04-12T03:57:49.360Z,0
2018-04-12T03:58:48.808Z,0
2018-04-12T03:59:49.066Z,0
2018-04-12T04:00:49.305Z,0
2018-04-12T04:01:48.844Z,0
2018-04-12T04:02:49.012Z,0
2018-04-12T04:03:48.466Z,0
2018-04-12T04:04:49.231Z,0
2018-04-12T04:05:48.690Z,0
2018-04-12T04:06:48.680Z,0
2018-04-12T04:07:49.188Z,0
2018-04-12T04:08:48.961Z,0
2018-04-12T04:09:49.154Z,0
2018-04-12T04:10:48.608Z,0
2018-04-12T04:11:49.384Z,0
2018-04-12T04:12:48.837Z,0
2018-04-12T04:13:48.819Z,0
2018-04-12T04:14:49.338Z,0
2018-04-12T04:15:49.312Z,0
2018-04-12T04:16:49.047Z,0
2018-04-12T04:17:48.760Z,0
2018-04-12T04:18:48.744Z,0
2018-04-12T04:19:48.972Z,0
2018-04-12T04:20:48.443Z,0
2018-04-12T04:21:48.955Z,0
2018-04-12T04:22:48.935Z,0
2018-04-12T04:23:48.122Z,0
2018-04-12T04:24:48.373Z,0
2018-04-12T04:25:49.135Z,0
2018-04-12T04:26:48.340Z,0
2018-04-12T04:27:48.578Z,0
2018-04-12T04:28:48.316Z,0
2018-04-12T04:29:48.022Z,0
2018-04-12T04:30:48.802Z,0
2018-04-12T04:31:48.841Z,0
2018-04-12T04:32:48.234Z,0
2018-04-12T04:33:48.468Z,0
2018-04-12T04:34:48.463Z,0
2018-04-12T04:35:48.447Z,0
2018-04-12T04:36:48.695Z,0
2018-04-12T04:37:48.677Z,0
2018-04-12T04:38:48.393Z,0
2018-04-12T04:39:48.409Z,0
2018-04-12T04:40:48.948Z,0
2018-04-12T04:41:48.606Z,0
2018-04-12T04:42:48.592Z,0
2018-04-12T04:43:48.314Z,0
2018-04-12T04:44:48.014Z,5
2018-04-12T04:45:48.280Z,5
2018-04-12T04:46:48.267Z,5
2018-04-12T04:47:48.247Z,5
2018-04-12T04:48:48.220Z,5
2018-04-12T04:49:47.671Z,5
2018-04-12T04:50:48.447Z,5
2018-04-12T04:51:47.924Z,5
2018-04-12T04:52:48.421Z,5
2018-04-12T04:53:48.400Z,5
2018-04-12T04:54:48.121Z,5
2018-04-12T04:55:48.371Z,5
2018-04-12T04:56:48.083Z,5
2018-04-12T04:57:48.081Z,5
2018-04-12T04:58:48.049Z,5
2018-04-12T04:59:48.034Z,5
2018-04-12T05:00:47.749Z,5
2018-04-12T05:01:48.266Z,10
2018-04-12T05:02:48.241Z,10
2018-04-12T05:03:48.222Z,10
2018-04-12T05:04:47.684Z,10
2018-04-12T05:05:47.931Z,10
2018-04-12T05:06:47.644Z,10
2018-04-12T05:07:48.179Z,10
2018-04-12T05:08:48.146Z,10
2018-04-12T05:09:47.867Z,10
2018-04-12T05:10:47.844Z,10
2018-04-12T05:11:48.367Z,10
2018-04-12T05:12:47.546Z,10
2018-04-12T05:13:47.806Z,15
2018-04-12T05:14:47.512Z,15
2018-04-12T05:15:48.219Z,15
2018-04-12T05:16:48.011Z,15
2018-04-12T05:17:47.717Z,15
2018-04-12T05:18:47.973Z,15
2018-04-12T05:19:47.957Z,20
2018-04-12T05:20:47.934Z,20
2018-04-12T05:21:47.401Z,20
2018-04-12T05:22:47.644Z,20
2018-04-12T05:23:47.881Z,25
2018-04-12T05:24:47.615Z,25
2018-04-12T05:25:47.849Z,25
2018-04-12T05:26:47.892Z,25
2018-04-12T05:27:47.618Z,30
2018-04-12T05:28:47.278Z,30
2018-04-12T05:29:47.797Z,30
2018-04-12T05:30:47.507Z,30
2018-04-12T05:31:47.224Z,35
2018-04-12T05:32:47.745Z,35
2018-04-12T05:33:47.459Z,35
2018-04-12T05:34:47.980Z,35
2018-04-12T05:35:47.429Z,40
2018-04-12T05:36:47.152Z,45
2018-04-12T05:37:47.390Z,45
2018-04-12T05:38:47.394Z,50
2018-04-12T05:39:47.093Z,50
2018-04-12T05:40:47.076Z,55
2018-04-12T05:41:47.335Z,55
2018-04-12T05:42:47.309Z,60
2018-04-12T05:43:47.821Z,60
2018-04-12T05:44:47.275Z,65
2018-04-12T05:45:47.539Z,60
2018-04-12T05:46:47.243Z,60
2018-04-12T05:47:47.230Z,60
2018-04-12T05:48:46.950Z,60
2018-04-12T05:49:47.191Z,65
2018-04-12T05:50:47.727Z,65
2018-04-12T05:51:46.628Z,65
2018-04-12T05:52:46.885Z,65
2018-04-12T05:53:47.667Z,65
2018-04-12T05:54:47.381Z,65
2018-04-12T05:55:47.363Z,65
2018-04-12T05:56:47.089Z,60
2018-04-12T05:57:47.064Z,65
2018-04-12T05:58:47.315Z,65
2018-04-12T05:59:47.048Z,65
2018-04-12T06:00:47.542Z,65
2018-04-12T06:01:47.007Z,70
2018-04-12T06:02:46.979Z,60
2018-04-12T06:03:47.511Z,60
2018-04-12T06:04:47.213Z,55
2018-04-12T06:05:46.671Z,60
2018-04-12T06:06:46.968Z,60
2018-04-12T06:07:47.182Z,60
2018-04-12T06:08:47.160Z,65
2018-04-12T06:09:47.137Z,65
2018-04-12T06:10:46.587Z,70
2018-04-12T06:11:46.305Z,75
2018-04-12T06:12:46.906Z,80
2018-04-12T06:13:47.344Z,85
2018-04-12T06:14:46.525Z,85
2018-04-12T06:15:47.058Z,90
2018-04-12T06:16:47.036Z,85
2018-04-12T06:17:47.007Z,90
2018-04-12T06:18:46.784Z,85
2018-04-12T06:19:47.264Z,85
2018-04-12T06:20:46.440Z,90
2018-04-12T06:21:46.994Z,90
2018-04-12T06:22:46.931Z,85
2018-04-12T06:23:47.185Z,90
2018-04-12T06:24:46.374Z,95
2018-04-12T06:25:46.642Z,100
2018-04-12T06:26:47.069Z,100
2018-04-12T06:27:46.849Z,100
2018-04-12T06:28:46.838Z,100
2018-04-12T06:29:46.292Z,100
2018-04-12T06:30:46.821Z,90
2018-04-12T06:31:46.790Z,90
2018-04-12T06:32:46.513Z,75
2018-04-12T06:33:46.759Z,75
2018-04-12T06:34:46.744Z,70
2018-04-12T06:35:46.995Z,65
2018-04-12T06:36:46.182Z,70
2018-04-12T06:37:46.959Z,65
2018-04-12T06:38:46.675Z,65
2018-04-12T06:39:46.685Z,65
2018-04-12T06:40:46.381Z,65
2018-04-12T06:41:46.894Z,65
2018-04-12T06:42:46.346Z,75
2018-04-12T06:43:46.601Z,85
2018-04-12T06:44:46.053Z,85
2018-04-12T06:45:46.582Z,95
2018-04-12T06:46:46.726Z,100
2018-04-12T06:47:46.012Z,100
2018-04-12T06:48:46.257Z,100
2018-04-12T06:49:46.515Z,100
2018-04-12T06:50:46.229Z,110
2018-04-12T06:51:46.484Z,115
2018-04-12T06:52:46.454Z,125
2018-04-12T06:53:46.181Z,125
2018-04-12T06:54:46.421Z,130
2018-04-12T06:55:46.433Z,125
2018-04-12T06:56:46.394Z,135
2018-04-12T06:57:45.849Z,140
2018-04-12T06:58:46.362Z,150
2018-04-12T06:59:46.087Z,155
2018-04-12T07:00:46.600Z,165
2018-04-12T07:01:46.067Z,170
2018-04-12T07:02:46.038Z,165
2018-04-12T07:03:46.019Z,165
2018-04-12T07:04:46.272Z,165
2018-04-12T07:05:45.477Z,170
2018-04-12T07:06:46.514Z,170
2018-04-12T07:07:46.503Z,165
2018-04-12T07:08:46.490Z,165
2018-04-12T07:09:46.205Z,165
2018-04-12T07:10:45.932Z,150
2018-04-12T07:11:46.452Z,155
2018-04-12T07:12:46.165Z,165
2018-04-12T07:13:45.942Z,145
2018-04-12T07:14:45.596Z,135
2018-04-12T07:15:45.583Z,145
2018-04-12T07:16:45.829Z,145
2018-04-12T07:17:46.090Z,145
2018-04-12T07:18:46.065Z,155
2018-04-12T07:19:45.793Z,165
2018-04-12T07:20:46.038Z,155
2018-04-12T07:21:45.760Z,160
2018-04-12T07:22:46.282Z,170
2018-04-12T07:23:45.467Z,165
2018-04-12T07:24:45.724Z,155
2018-04-12T07:25:45.702Z,185
2018-04-12T07:26:45.952Z,180
2018-04-12T07:27:45.674Z,145
2018-04-12T07:28:45.928Z,165
2018-04-12T07:29:45.650Z,170
2018-04-12T07:30:45.911Z,170
2018-04-12T07:31:45.613Z,175
2018-04-12T07:32:45.871Z,190
2018-04-12T07:33:45.865Z,185
2018-04-12T07:34:45.834Z,155
2018-04-12T07:35:46.096Z,145
2018-04-12T07:36:45.842Z,155
2018-04-12T07:37:46.100Z,140
2018-04-12T07:38:45.784Z,135
2018-04-12T07:39:45.235Z,125
2018-04-12T07:40:46.022Z,140
2018-04-12T07:41:45.476Z,165
2018-04-12T07:42:46.001Z,170
2018-04-12T07:43:45.532Z,155
2018-04-12T07:44:45.429Z,145
2018-04-12T07:45:45.684Z,135
2018-04-12T07:46:45.682Z,125
2018-04-12T07:47:45.659Z,145
2018-04-12T07:48:45.638Z,145
2018-04-12T07:49:45.624Z,130
2018-04-12T07:50:45.354Z,150
2018-04-12T07:51:45.640Z,135
2018-04-12T07:52:44.790Z,145
2018-04-12T07:53:45.044Z,185
2018-04-12T07:54:45.551Z,175
2018-04-12T07:55:45.557Z,135
2018-04-12T07:56:45.438Z,145
2018-04-12T07:57:45.251Z,160
2018-04-12T07:58:45.769Z,160
2018-04-12T07:59:44.961Z,140
2018-04-12T08:00:45.476Z,155
2018-04-12T08:01:45.198Z,165
2018-04-12T08:02:45.448Z,150
2018-04-12T08:03:45.696Z,150
2018-04-12T08:04:45.155Z,145
2018-04-12T08:05:44.877Z,135
2018-04-12T08:06:45.397Z,150
2018-04-12T08:07:45.640Z,155
2018-04-12T08:08:45.099Z,165
2018-04-12T08:09:44.818Z,185
2018-04-12T08:10:45.069Z,245
2018-04-12T08:11:45.324Z,235
2018-04-12T08:12:45.042Z,285
2018-04-12T08:13:45.291Z,345
2018-04-12T08:14:45.013Z,375
2018-04-12T08:15:44.743Z,320
2018-04-12T08:16:45.524Z,380
2018-04-12T08:17:44.983Z,315
2018-04-12T08:18:44.697Z,295
2018-04-12T08:19:44.956Z,320
2018-04-12T08:20:44.675Z,350
2018-04-12T08:21:44.931Z,400
2018-04-12T08:22:44.914Z,435
2018-04-12T08:23:44.916Z,410
2018-04-12T08:24:44.901Z,385
2018-04-12T08:25:45.402Z,350
2018-04-12T08:26:44.805Z,325
2018-04-12T08:27:44.580Z,295
2018-04-12T08:28:45.376Z,300
2018-04-12T08:29:44.296Z,290
2018-04-12T08:30:45.343Z,280
2018-04-12T08:31:44.814Z,280
2018-04-12T08:32:45.048Z,270
2018-04-12T08:33:44.510Z,260
2018-04-12T08:34:44.806Z,250
2018-04-12T08:35:44.489Z,245
2018-04-12T08:36:44.473Z,235
2018-04-12T08:37:44.727Z,230
2018-04-12T08:38:44.972Z,220
2018-04-12T08:39:44.435Z,220
2018-04-12T08:40:44.960Z,220
2018-04-12T08:41:44.677Z,215
2018-04-12T08:42:44.662Z,210
2018-04-12T08:43:44.660Z,210
2018-04-12T08:44:44.382Z,210
2018-04-12T08:45:44.901Z,205
2018-04-12T08:46:44.626Z,205
2018-04-12T08:47:44.613Z,205
2018-04-12T08:48:44.068Z,205
2018-04-12T08:49:44.579Z,200
2018-04-12T08:50:44.570Z,190
2018-04-12T08:51:44.562Z,170
2018-04-12T08:52:44.811Z,165
2018-04-12T08:53:44.795Z,150
2018-04-12T08:54:44.525Z,140
2018-04-12T08:55:45.054Z,125
2018-04-12T08:56:44.759Z,115
2018-04-12T08:57:44.221Z,110
2018-04-12T08:58:44.742Z,110
2018-04-12T08:59:44.181Z,115
2018-04-12T09:00:44.179Z,115
2018-04-12T09:01:44.694Z,115
2018-04-12T09:02:44.688Z,115
2018-04-12T09:03:44.405Z,115
2018-04-12T09:04:44.397Z,115
2018-04-12T09:05:44.370Z,115
2018-04-12T09:06:44.375Z,120
2018-04-12T09:07:44.618Z,120
2018-04-12T09:08:44.344Z,125
2018-04-12T09:09:44.337Z,125
2018-04-12T09:10:44.316Z,125
2018-04-12T09:11:44.067Z,130
2018-04-12T09:12:44.551Z,130
2018-04-12T09:13:44.004Z,130
2018-04-12T09:14:44.790Z,130
2018-04-12T09:15:43.998Z,130
2018-04-12T09:16:44.232Z,125
2018-04-12T09:17:43.961Z,125
2018-04-12T09:18:44.477Z,120
2018-04-12T09:19:43.930Z,120
2018-04-12T09:20:44.444Z,115
2018-04-12T09:21:43.912Z,115
2018-04-12T09:22:44.820Z,115
2018-04-12T09:23:44.408Z,110
2018-04-12T09:24:44.132Z,110
2018-04-12T09:25:44.116Z,110
2018-04-12T09:26:44.102Z,105
2018-04-12T09:27:44.805Z,105
2018-04-12T09:28:44.333Z,105
2018-04-12T09:29:44.054Z,110
2018-04-12T09:30:44.355Z,110
2018-04-12T09:31:44.026Z,110
2018-04-12T09:32:44.278Z,120
2018-04-12T09:33:43.741Z,125
2018-04-12T09:34:44.261Z,130
2018-04-12T09:35:43.712Z,130
2018-04-12T09:36:44.491Z,135
2018-04-12T09:37:43.956Z,145
2018-04-12T09:38:43.935Z,155
2018-04-12T09:39:44.191Z,165
2018-04-12T09:40:44.455Z,170
2018-04-12T09:41:44.174Z,180
2018-04-12T09:42:43.623Z,185
2018-04-12T09:43:44.140Z,200
2018-04-12T09:44:43.850Z,220
2018-04-12T09:45:43.838Z,235
2018-04-12T09:46:44.349Z,245
2018-04-12T09:47:43.826Z,260
2018-04-12T09:48:44.319Z,280
2018-04-12T09:49:44.055Z,270
2018-04-12T09:50:44.057Z,275
2018-04-12T09:51:44.040Z,280
2018-04-12T09:52:43.749Z,280
2018-04-12T09:53:43.458Z,295
2018-04-12T09:54:43.454Z,305
2018-04-12T09:55:44.024Z,325
2018-04-12T09:56:43.437Z,375
2018-04-12T09:57:43.675Z,515
2018-04-12T09:58:43.925Z,710
2018-04-12T09:59:43.119Z,740
2018-04-12T10:00:43.644Z,745
2018-04-12T10:01:43.628Z,815
2018-04-12T10:02:43.878Z,845
2018-04-12T10:03:43.869Z,680
2018-04-12T10:04:43.853Z,705
2018-04-12T10:05:43.580Z,925
2018-04-12T10:06:43.036Z,810
2018-04-12T10:07:43.828Z,650
2018-04-12T10:08:43.542Z,555
2018-04-12T10:09:43.799Z,545
2018-04-12T10:10:43.529Z,490
2018-04-12T10:11:43.780Z,430
2018-04-12T10:12:43.512Z,390
2018-04-12T10:13:43.494Z,385
2018-04-12T10:14:43.783Z,385
2018-04-12T10:15:43.218Z,390
2018-04-12T10:16:43.266Z,425
2018-04-12T10:17:43.716Z,460
2018-04-12T10:18:43.441Z,530
2018-04-12T10:19:43.437Z,610
2018-04-12T10:20:43.686Z,625
2018-04-12T10:21:43.494Z,650
2018-04-12T10:22:43.700Z,725
2018-04-12T10:23:43.399Z,740
2018-04-12T10:24:43.125Z,880
2018-04-12T10:25:43.753Z,945
2018-04-12T10:26:43.843Z,965
2018-04-12T10:27:43.361Z,1120
2018-04-12T10:28:43.385Z,855
2018-04-12T10:29:43.336Z,780
2018-04-12T10:30:43.602Z,980
2018-04-12T10:31:43.318Z,970
2018-04-12T10:32:43.599Z,875
2018-04-12T10:33:43.044Z,850
2018-04-12T10:34:43.605Z,855
2018-04-12T10:35:43.821Z,925
2018-04-12T10:36:43.285Z,945
2018-04-12T10:37:43.542Z,980
2018-04-12T10:38:43.339Z,1100
2018-04-12T10:39:43.603Z,1015
2018-04-12T10:40:43.256Z,840
2018-04-12T10:41:43.328Z,805
2018-04-12T10:42:43.243Z,1005
2018-04-12T10:43:42.974Z,1040
2018-04-12T10:44:43.240Z,1085
2018-04-12T10:45:43.493Z,1185
2018-04-12T10:46:43.258Z,1395
2018-04-12T10:47:43.755Z,1290
2018-04-12T10:48:43.212Z,1430
2018-04-12T10:49:43.210Z,1060
2018-04-12T10:50:43.203Z,1050
2018-04-12T10:51:43.260Z,1410
2018-04-12T10:52:43.205Z,1450
2018-04-12T10:53:43.452Z,1580
2018-04-12T10:54:43.456Z,1785
2018-04-12T10:55:43.183Z,1695
2018-04-12T10:56:43.182Z,1580
2018-04-12T10:57:43.196Z,1580
2018-04-12T10:58:43.175Z,1470
2018-04-12T10:59:43.172Z,1135
2018-04-12T11:00:43.440Z,1180
2018-04-12T11:01:42.900Z,1410
2018-04-12T11:02:43.170Z,1470
2018-04-12T11:03:42.898Z,1480
2018-04-12T11:04:43.157Z,1330
2018-04-12T11:05:43.414Z,1495
2018-04-12T11:06:43.688Z,1330
2018-04-12T11:07:42.897Z,1125
2018-04-12T11:08:43.431Z,875
2018-04-12T11:09:42.883Z,765
2018-04-12T11:10:42.880Z,715
2018-04-12T11:11:43.426Z,725
2018-04-12T11:12:43.411Z,705
2018-04-12T11:13:43.412Z,685
2018-04-12T11:14:43.148Z,585
2018-04-12T11:15:43.408Z,495
2018-04-12T11:16:42.873Z,465
2018-04-12T11:17:42.605Z,450
2018-04-12T11:18:42.863Z,455
2018-04-12T11:19:43.400Z,455
2018-04-12T11:20:43.120Z,430
2018-04-12T11:21:43.126Z,410
2018-04-12T11:22:43.119Z,420
2018-04-12T11:23:43.265Z,405
2018-04-12T11:24:42.846Z,450
2018-04-12T11:25:42.874Z,600
2018-04-12T11:26:42.579Z,760
2018-04-12T11:27:43.637Z,965
2018-04-12T11:28:43.622Z,930
2018-04-12T11:29:43.405Z,710
2018-04-12T11:30:43.619Z,740
2018-04-12T11:31:42.925Z,920
2018-04-12T11:32:42.815Z,1010
2018-04-12T11:33:43.068Z,1070
2018-04-12T11:34:43.135Z,1315
2018-04-12T11:35:43.061Z,1185
2018-04-12T11:36:43.059Z,1125
2018-04-12T11:37:43.584Z,770
2018-04-12T11:38:43.044Z,1020
2018-04-12T11:39:43.044Z,955
2018-04-12T11:40:43.391Z,710
2018-04-12T11:41:43.325Z,680
2018-04-12T11:42:43.598Z,760
2018-04-12T11:43:42.763Z,1080
2018-04-12T11:44:43.566Z,1290
2018-04-12T11:45:42.492Z,1290
2018-04-12T11:46:42.795Z,1390
2018-04-12T11:47:43.292Z,1500
2018-04-12T11:48:42.753Z,1610
2018-04-12T11:49:43.405Z,1735
2018-04-12T11:50:42.474Z,1795
2018-04-12T11:51:43.009Z,1805
2018-04-12T11:52:43.007Z,1790
2018-04-12T11:53:43.540Z,1775
2018-04-12T11:54:42.471Z,1805
2018-04-12T11:55:43.432Z,1900
2018-04-12T11:56:43.344Z,1865
2018-04-12T11:57:43.522Z,1840
2018-04-12T11:58:43.264Z,1870
2018-04-12T11:59:43.266Z,1725
2018-04-12T12:00:43.524Z,1905
2018-04-12T12:01:43.044Z,1920
2018-04-12T12:02:43.541Z,1920
2018-04-12T12:03:43.011Z,1870
2018-04-12T12:04:43.287Z,1900
2018-04-12T12:05:43.002Z,1870
2018-04-12T12:06:43.033Z,1840
2018-04-12T12:07:43.283Z,1910
2018-04-12T12:08:43.018Z,1900
2018-04-12T12:09:42.487Z,1930
2018-04-12T12:10:43.303Z,1875
2018-04-12T12:11:43.033Z,1845
2018-04-12T12:12:43.317Z,1825
2018-04-12T12:13:43.605Z,1840
2018-04-12T12:14:43.328Z,1850
2018-04-12T12:15:43.308Z,1840
2018-04-12T12:16:43.571Z,1840
2018-04-12T12:17:42.991Z,1785
2018-04-12T12:18:43.332Z,1575
2018-04-12T12:19:43.321Z,1790
2018-04-12T12:20:42.805Z,1880
2018-04-12T12:21:43.072Z,1930
2018-04-12T12:22:42.811Z,1850
2018-04-12T12:23:43.495Z,1895
2018-04-12T12:24:43.078Z,1870
2018-04-12T12:25:43.351Z,1850
2018-04-12T12:26:43.831Z,1860
2018-04-12T12:27:42.844Z,1895
2018-04-12T12:28:43.160Z,1905
2018-04-12T12:29:42.582Z,1820
2018-04-12T12:30:43.381Z,1815
2018-04-12T12:31:43.386Z,1760
2018-04-12T12:32:43.133Z,1640
2018-04-12T12:33:43.663Z,1605
2018-04-12T12:34:43.151Z,1050
2018-04-12T12:35:43.414Z,960
2018-04-12T12:36:43.409Z,480
2018-04-12T12:37:43.692Z,1470
2018-04-12T12:38:43.157Z,1715
2018-04-12T12:39:43.422Z,1765
2018-04-12T12:40:43.425Z,1760
2018-04-12T12:41:43.445Z,1740
2018-04-12T12:42:43.710Z,1760
2018-04-12T12:43:43.487Z,1745
2018-04-12T12:44:42.930Z,1755
2018-04-12T12:45:43.454Z,1770
2018-04-12T12:46:43.192Z,1755
2018-04-12T12:47:42.666Z,1770
2018-04-12T12:48:43.189Z,1795
2018-04-12T12:49:43.209Z,1820
2018-04-12T12:50:43.278Z,1820
2018-04-12T12:51:43.741Z,1815
2018-04-12T12:52:42.949Z,1835
2018-04-12T12:53:43.216Z,1840
2018-04-12T12:54:43.479Z,1810
2018-04-12T12:55:43.486Z,1800
2018-04-12T12:56:42.971Z,1800
2018-04-12T12:57:43.230Z,1800
2018-04-12T12:58:43.500Z,1760
2018-04-12T12:59:43.511Z,1725
2018-04-12T13:00:43.247Z,1700
2018-04-12T13:01:43.509Z,1715
2018-04-12T13:02:43.256Z,1740
2018-04-12T13:03:43.107Z,1720
2018-04-12T13:04:42.999Z,1705
2018-04-12T13:05:43.542Z,1665
2018-04-12T13:06:43.558Z,1655
2018-04-12T13:07:43.543Z,1675
2018-04-12T13:08:43.289Z,1670
2018-04-12T13:09:43.289Z,1610
2018-04-12T13:10:43.285Z,1560
2018-04-12T13:11:43.832Z,1570
2018-04-12T13:12:43.286Z,1665
2018-04-12T13:13:43.036Z,1680
2018-04-12T13:14:43.310Z,1705
2018-04-12T13:15:43.607Z,1700
2018-04-12T13:16:43.332Z,1690
2018-04-12T13:17:43.319Z,1620
2018-04-12T13:18:43.059Z,1545
2018-04-12T13:19:43.316Z,1525
2018-04-12T13:20:43.598Z,1530
2018-04-12T13:21:43.598Z,1535
2018-04-12T13:22:42.810Z,1510
2018-04-12T13:23:43.876Z,1435
2018-04-12T13:24:43.342Z,1370
2018-04-12T13:25:43.079Z,1370
2018-04-12T13:26:43.096Z,1395
2018-04-12T13:27:43.627Z,1390
2018-04-12T13:28:43.639Z,1370
2018-04-12T13:29:43.909Z,1345
2018-04-12T13:30:43.371Z,1315
2018-04-12T13:31:43.363Z,1330
2018-04-12T13:32:43.383Z,1340
2018-04-12T13:33:43.655Z,1355
2018-04-12T13:34:43.645Z,1365
2018-04-12T13:35:43.129Z,1360
2018-04-12T13:36:43.407Z,1350
2018-04-12T13:37:43.392Z,1340
2018-04-12T13:38:43.683Z,1325
2018-04-12T13:39:43.669Z,1330
2018-04-12T13:40:43.407Z,1335
2018-04-12T13:41:43.958Z,1325
2018-04-12T13:42:43.681Z,1310
2018-04-12T13:43:43.419Z,1315
2018-04-12T13:44:43.426Z,1375
2018-04-12T13:45:43.962Z,1415
2018-04-12T13:46:43.436Z,1410
2018-04-12T13:47:43.183Z,1360
2018-04-12T13:48:43.180Z,1335
2018-04-12T13:49:43.451Z,1325
2018-04-12T13:50:43.712Z,1320
2018-04-12T13:51:43.727Z,1240
2018-04-12T13:52:43.455Z,1210
2018-04-12T13:53:44.004Z,1165
2018-04-12T13:54:43.732Z,1115
2018-04-12T13:55:43.221Z,1050
2018-04-12T13:56:43.590Z,1070
2018-04-12T13:57:44.007Z,1055
2018-04-12T13:58:43.209Z,990
2018-04-12T13:59:43.744Z,1045
2018-04-12T14:00:43.759Z,1055
2018-04-12T14:01:43.756Z,1035
2018-04-12T14:02:43.770Z,1065
2018-04-12T14:03:44.035Z,1085
2018-04-12T14:04:43.598Z,1055